aviador You're here:

OPNH Decoded Metar

NAWABSHAH in PAKISTAN
Report Time2018-07-22 12:00:00
UTC Time2018-07-22 12:54:39
Flight Rules mvfr MVFR
Wind135° at 12 kt
W.Decomp.*RWY 20: 5.1 kt HW 10.9 kt LCW
Visibility6000 m
Phenomena:N/A
Clouds:N/A
Expected CloudBase > 6,400 ft AGL from Temp-Dew spread
CeilingNone
Temp41°C (ISA +26)
Dew Point25°C (40% RH)
Heat Index50.9°C
QNH0992 hPa
Density Alt4,190 ft
Elevation125 ft
Report Wrong Elevation
Raw Report
OPNH 221200Z 13512KT 6000 NSC 41/25 Q0992 NOSIG=

Extra information for OPNH:More info

Metar Taf Metar & Taf Last 4 Metars F.Rules Stats Wind Profile Meteogram Temp Stats Airport Information Weather charts Add Link Nearby VenuesMetar ALERT Operation Metar Decoded Social comments